createdAt,value
2018-03-04T00:00:59.739Z,46.13
2018-03-04T00:03:26.112Z,51.00
2018-03-04T00:05:52.375Z,49.00
2018-03-04T00:08:25.276Z,50.03
2018-03-04T00:10:51.524Z,49.63
2018-03-04T00:13:18.034Z,45.47
2018-03-04T00:15:44.254Z,50.40
2018-03-04T00:18:10.504Z,47.57
2018-03-04T00:20:45.102Z,51.70
2018-03-04T00:23:12.091Z,51.63
2018-03-04T00:25:38.348Z,51.97
2018-03-04T00:28:04.652Z,52.80
2018-03-04T00:30:31.866Z,51.43
2018-03-04T00:33:00.405Z,52.57
2018-03-04T00:35:26.828Z,53.70
2018-03-04T00:37:53.170Z,52.83
2018-03-04T00:40:19.497Z,53.73
2018-03-04T00:42:45.784Z,56.67
2018-03-04T00:45:12.913Z,52.37
2018-03-04T00:47:39.338Z,47.83
2018-03-04T00:50:05.661Z,49.10
2018-03-04T00:52:31.977Z,53.47
2018-03-04T00:55:00.449Z,49.90
2018-03-04T00:57:27.634Z,54.90
2018-03-04T00:59:54.340Z,52.93
2018-03-04T01:02:20.714Z,54.97
2018-03-04T01:04:47.781Z,54.73
2018-03-04T01:07:14.082Z,53.67
2018-03-04T01:09:40.379Z,54.33
2018-03-04T01:12:07.413Z,53.23
2018-03-04T01:14:33.681Z,52.03
2018-03-04T01:17:00.785Z,56.13
2018-03-04T01:19:29.181Z,54.97
2018-03-04T01:21:55.505Z,50.33
2018-03-04T01:24:21.829Z,51.80
2018-03-04T01:26:48.989Z,55.73
2018-03-04T01:29:15.288Z,54.70
2018-03-04T01:31:41.579Z,52.17
2018-03-04T01:34:15.581Z,54.23
2018-03-04T01:36:42.593Z,52.67
2018-03-04T01:39:08.851Z,56.73
2018-03-04T01:41:35.123Z,53.70
2018-03-04T01:44:02.242Z,52.70
2018-03-04T01:46:28.522Z,50.97
2018-03-04T01:48:55.630Z,49.37
2018-03-04T01:54:27.282Z,54.83
2018-03-04T01:56:53.465Z,50.43
2018-03-04T01:59:19.620Z,49.00
2018-03-04T02:01:46.025Z,55.00
2018-03-04T02:04:12.911Z,55.43
2018-03-04T02:06:39.211Z,54.47
2018-03-04T02:09:05.371Z,55.97
2018-03-04T02:11:32.555Z,53.03
2018-03-04T02:13:58.771Z,49.90
2018-03-04T02:16:25.735Z,50.30
2018-03-04T02:18:52.636Z,53.63
2018-03-04T02:21:18.792Z,50.50
2018-03-04T02:23:44.978Z,51.97
2018-03-04T02:26:11.159Z,56.43
2018-03-04T02:28:37.337Z,49.60
2018-03-04T02:31:04.295Z,52.60
2018-03-04T02:33:31.240Z,56.27
2018-03-04T02:35:57.427Z,52.53
2018-03-04T02:38:23.624Z,56.37
2018-03-04T02:40:50.197Z,51.97
2018-03-04T02:43:16.353Z,50.00
2018-03-04T02:45:42.521Z,52.03
2018-03-04T02:48:08.674Z,56.53
2018-03-04T02:50:34.846Z,54.43
2018-03-04T02:53:01.767Z,50.33
2018-03-04T02:55:28.011Z,56.10
2018-03-04T02:57:54.297Z,53.97
2018-03-04T03:00:20.500Z,53.73
2018-03-04T03:02:46.671Z,54.20
2018-03-04T03:05:13.550Z,54.43
2018-03-04T03:07:39.688Z,57.27
2018-03-04T03:10:05.860Z,51.73
2018-03-04T03:12:32.020Z,49.73
2018-03-04T03:14:58.234Z,51.43
2018-03-04T03:17:24.614Z,53.20
2018-03-04T03:19:51.534Z,54.47
2018-03-04T03:22:17.680Z,49.67
2018-03-04T03:24:44.597Z,54.10
2018-03-04T03:27:10.751Z,54.03
2018-03-04T03:29:36.962Z,52.27
2018-03-04T03:32:04.155Z,53.67
2018-03-04T03:34:30.348Z,54.40
2018-03-04T03:36:57.524Z,53.30
2018-03-04T03:39:24.646Z,55.30
2018-03-04T03:41:50.862Z,55.37
2018-03-04T03:44:17.050Z,53.17
2018-03-04T03:46:44.003Z,50.43
2018-03-04T03:49:10.149Z,55.50
2018-03-04T03:51:36.311Z,54.57
2018-03-04T03:54:03.309Z,55.30
2018-03-04T03:56:29.503Z,55.57
2018-03-04T03:58:56.429Z,55.27
2018-03-04T04:01:22.552Z,56.60
2018-03-04T04:03:48.806Z,52.03
2018-03-04T04:06:14.979Z,56.37
2018-03-04T04:08:41.893Z,51.97
2018-03-04T04:11:08.078Z,56.03
2018-03-04T04:13:35.006Z,56.67
2018-03-04T04:16:01.192Z,56.47
2018-03-04T04:18:27.378Z,54.10
2018-03-04T04:20:53.547Z,55.07
2018-03-04T04:23:20.458Z,54.27
2018-03-04T04:25:46.602Z,55.10
2018-03-04T04:28:12.813Z,50.90
2018-03-04T04:30:38.977Z,60.67
2018-03-04T04:33:05.160Z,65.30
2018-03-04T04:35:32.063Z,53.00
2018-03-04T04:37:58.286Z,54.40
2018-03-04T04:40:24.481Z,57.47
2018-03-04T04:42:50.644Z,63.00
2018-03-04T04:45:17.540Z,56.67
2018-03-04T04:47:43.707Z,57.53
2018-03-04T04:50:09.855Z,52.00
2018-03-04T04:52:36.069Z,58.77
2018-03-04T04:55:02.232Z,55.67
2018-03-04T04:57:28.768Z,55.17
2018-03-04T04:59:55.156Z,55.83
2018-03-04T05:02:22.087Z,55.10
2018-03-04T05:04:48.347Z,56.47
2018-03-04T05:07:15.350Z,53.03
2018-03-04T05:09:41.555Z,56.20
2018-03-04T05:12:08.482Z,59.50
2018-03-04T05:14:34.655Z,58.03
2018-03-04T05:17:00.840Z,59.07
2018-03-04T05:19:26.975Z,54.80
2018-03-04T05:21:53.203Z,54.20
2018-03-04T05:24:22.429Z,56.10
2018-03-04T05:26:48.836Z,53.83
2018-03-04T05:29:15.059Z,61.10
2018-03-04T05:31:41.939Z,56.50
2018-03-04T05:34:08.131Z,54.47
2018-03-04T05:36:34.312Z,57.33
2018-03-04T05:39:00.535Z,52.07
2018-03-04T05:41:27.443Z,59.77
2018-03-04T05:43:54.660Z,65.27
2018-03-04T05:46:21.545Z,63.17
2018-03-04T05:48:47.735Z,62.87
2018-03-04T05:51:13.907Z,54.73
2018-03-04T05:53:40.057Z,65.20
2018-03-04T05:56:06.253Z,58.93
2018-03-04T05:58:32.459Z,59.37
2018-03-04T06:00:58.652Z,60.67
2018-03-04T06:03:25.575Z,64.17
2018-03-04T06:05:51.763Z,63.30
2018-03-04T06:08:17.938Z,57.70
2018-03-04T06:10:44.105Z,60.30
2018-03-04T06:13:11.032Z,66.20
2018-03-04T06:15:37.217Z,66.10
2018-03-04T06:18:04.146Z,63.50
2018-03-04T06:20:31.554Z,63.37
2018-03-04T06:22:57.733Z,55.57
2018-03-04T06:25:23.919Z,56.67
2018-03-04T06:27:50.813Z,54.63
2018-03-04T06:30:17.012Z,59.37
2018-03-04T06:32:43.911Z,61.50
2018-03-04T06:35:10.098Z,62.53
2018-03-04T06:37:36.249Z,61.53
2018-03-04T06:40:03.300Z,63.10
2018-03-04T06:42:30.605Z,61.70
2018-03-04T06:44:56.798Z,62.10
2018-03-04T06:47:22.978Z,64.17
2018-03-04T06:49:49.161Z,60.17
2018-03-04T06:52:15.442Z,59.67
2018-03-04T06:54:42.351Z,61.70
2018-03-04T06:57:08.488Z,63.53
2018-03-04T06:59:34.683Z,61.07
2018-03-04T07:02:02.049Z,63.57
2018-03-04T07:04:29.029Z,60.80
2018-03-04T07:06:56.233Z,65.93
2018-03-04T07:09:22.416Z,58.20
2018-03-04T07:11:48.583Z,61.83
2018-03-04T07:14:14.763Z,61.20
2018-03-04T07:16:40.908Z,65.73
2018-03-04T07:19:07.089Z,62.63
2018-03-04T07:21:33.270Z,62.50
2018-03-04T07:23:59.486Z,61.00
2018-03-04T07:26:25.655Z,68.60
2018-03-04T07:28:51.855Z,64.63
2018-03-04T07:31:18.035Z,62.63
2018-03-04T07:33:44.207Z,60.97
2018-03-04T07:36:11.131Z,63.07
2018-03-04T07:38:38.788Z,63.90
2018-03-04T07:41:05.058Z,60.17
2018-03-04T07:43:31.232Z,66.77
2018-03-04T07:45:57.415Z,65.80
2018-03-04T07:48:23.585Z,67.53
2018-03-04T07:50:49.735Z,57.23
2018-03-04T07:53:16.710Z,53.87
2018-03-04T07:55:42.865Z,67.40
2018-03-04T07:58:09.054Z,63.10
2018-03-04T08:00:35.280Z,60.17
2018-03-04T08:03:01.572Z,55.60
2018-03-04T08:05:27.765Z,58.37
2018-03-04T08:07:53.946Z,55.87
2018-03-04T08:10:20.107Z,62.07
2018-03-04T08:12:46.266Z,62.47
2018-03-04T08:15:13.177Z,53.47
2018-03-04T08:17:40.126Z,62.53
2018-03-04T08:20:07.059Z,63.23
2018-03-04T08:22:33.236Z,60.27
2018-03-04T08:25:11.655Z,62.00
2018-03-04T08:27:50.843Z,60.40
2018-03-04T08:30:17.009Z,65.27
2018-03-04T08:32:43.152Z,52.93
2018-03-04T08:35:09.328Z,61.43
2018-03-04T08:37:35.495Z,61.13
2018-03-04T08:40:01.904Z,64.73
2018-03-04T08:42:28.277Z,65.63
2018-03-04T08:44:54.458Z,68.73
2018-03-04T08:47:20.635Z,69.50
2018-03-04T08:49:47.613Z,63.97
2018-03-04T08:52:13.790Z,66.03
2018-03-04T08:54:40.029Z,67.77
2018-03-04T08:57:06.210Z,58.40
2018-03-04T08:59:33.137Z,61.10
2018-03-04T09:02:00.046Z,61.77
2018-03-04T09:04:26.361Z,68.60
2018-03-04T09:06:52.816Z,64.63
2018-03-04T09:09:19.314Z,61.53
2018-03-04T09:11:46.457Z,68.07
2018-03-04T09:14:12.707Z,60.97
2018-03-04T09:16:39.158Z,66.40
2018-03-04T09:19:05.484Z,53.87
2018-03-04T09:21:32.624Z,58.70
2018-03-04T09:23:59.185Z,64.57
2018-03-04T09:26:26.348Z,68.23
2018-03-04T09:28:52.768Z,60.40
2018-03-04T09:31:19.845Z,62.00
2018-03-04T09:33:46.121Z,56.27
2018-03-04T09:36:12.434Z,59.87
2018-03-04T09:38:39.192Z,53.10
2018-03-04T09:41:05.508Z,56.73
2018-03-04T09:43:31.943Z,55.80
2018-03-04T09:45:58.759Z,58.13
2018-03-04T09:48:26.107Z,55.77
2018-03-04T09:50:52.545Z,65.13
2018-03-04T09:53:19.122Z,57.27
2018-03-04T09:55:45.454Z,59.80
2018-03-04T09:58:11.790Z,59.43
2018-03-04T10:00:38.100Z,57.37
2018-03-04T10:03:05.182Z,58.63
2018-03-04T10:05:31.575Z,63.30
2018-03-04T10:07:57.981Z,58.03
2018-03-04T10:10:24.313Z,57.13
2018-03-04T10:12:50.647Z,57.90
2018-03-04T10:15:17.024Z,60.70
2018-03-04T10:17:43.478Z,58.50
2018-03-04T10:20:09.781Z,62.70
2018-03-04T10:22:36.149Z,60.53
2018-03-04T10:25:02.597Z,60.10
2018-03-04T10:27:29.261Z,55.03
2018-03-04T10:29:55.798Z,55.27
2018-03-04T10:32:22.182Z,61.33
2018-03-04T10:34:48.423Z,57.47
2018-03-04T10:37:15.551Z,54.40
2018-03-04T10:39:41.870Z,58.90
2018-03-04T10:42:08.868Z,53.93
2018-03-04T10:44:39.108Z,57.57
2018-03-04T10:47:05.510Z,59.60
2018-03-04T10:49:32.782Z,61.47
2018-03-04T10:52:00.881Z,52.27
2018-03-04T10:54:27.284Z,56.47
2018-03-04T10:56:53.657Z,59.77
2018-03-04T10:59:19.946Z,60.70
2018-03-04T11:01:51.161Z,58.87
2018-03-04T11:04:17.587Z,51.37
2018-03-04T11:06:57.108Z,62.43
2018-03-04T11:09:24.832Z,56.63
2018-03-04T11:11:51.134Z,56.10
2018-03-04T11:14:21.702Z,55.23
2018-03-04T11:16:47.950Z,54.47
2018-03-04T11:22:19.410Z,55.00
2018-03-04T11:24:46.281Z,56.37
2018-03-04T11:27:12.715Z,52.77
2018-03-04T11:29:39.276Z,52.50
2018-03-04T11:32:06.541Z,59.83
2018-03-04T11:37:10.277Z,52.87
2018-03-04T11:39:37.064Z,50.90
2018-03-04T11:42:08.011Z,49.40
2018-03-04T11:44:34.759Z,46.67
2018-03-04T11:47:01.224Z,46.90
2018-03-04T11:49:27.491Z,50.73
2018-03-04T11:51:53.802Z,47.33
2018-03-04T11:54:20.109Z,47.63
2018-03-04T11:56:47.600Z,48.10
2018-03-04T11:59:13.865Z,47.23
2018-03-04T12:01:40.180Z,47.83
2018-03-04T12:04:07.171Z,47.83
2018-03-04T12:06:33.497Z,47.67
2018-03-04T12:09:02.501Z,47.27
2018-03-04T12:11:29.556Z,49.27
2018-03-04T12:13:55.862Z,46.97
2018-03-04T12:16:22.210Z,48.33
2018-03-04T12:18:48.482Z,47.47
2018-03-04T12:21:14.769Z,48.27
2018-03-04T12:23:41.070Z,50.13
2018-03-04T12:26:07.416Z,48.67
2018-03-04T12:28:33.769Z,49.33
2018-03-04T12:31:00.250Z,47.07
2018-03-04T12:33:29.583Z,44.17
2018-03-04T12:35:56.731Z,46.60
2018-03-04T12:38:22.976Z,40.70
2018-03-04T12:40:49.988Z,40.93
2018-03-04T12:43:16.273Z,43.53
2018-03-04T12:45:42.623Z,45.73
2018-03-04T12:48:08.942Z,40.53
2018-03-04T12:50:35.272Z,40.00
2018-03-04T12:53:01.858Z,41.27
2018-03-04T12:55:28.748Z,42.17
2018-03-04T12:57:55.325Z,39.17
2018-03-04T13:00:22.314Z,41.07
2018-03-04T13:02:49.010Z,39.77
2018-03-04T13:05:15.616Z,40.67
2018-03-04T13:07:42.665Z,39.40
2018-03-04T13:10:22.366Z,41.73
2018-03-04T13:12:49.979Z,36.53
2018-03-04T13:15:16.990Z,38.70
2018-03-04T13:17:44.040Z,38.43
2018-03-04T13:20:10.486Z,37.03
2018-03-04T13:22:36.766Z,36.90
2018-03-04T13:25:03.199Z,40.03
2018-03-04T13:27:33.577Z,39.33
2018-03-04T13:30:00.881Z,40.43
2018-03-04T13:32:27.558Z,35.53
2018-03-04T13:34:55.543Z,40.53
2018-03-04T13:37:22.573Z,37.53
2018-03-04T13:39:52.559Z,39.17
2018-03-04T13:42:19.124Z,38.50
2018-03-04T13:44:45.426Z,40.40
2018-03-04T13:47:11.797Z,39.43
2018-03-04T13:49:38.082Z,37.77
2018-03-04T13:52:04.406Z,37.37
2018-03-04T13:54:30.831Z,35.67
2018-03-04T13:56:57.107Z,37.60
2018-03-04T13:59:23.546Z,37.57
2018-03-04T14:01:49.829Z,40.43
2018-03-04T14:04:16.858Z,38.27
2018-03-04T14:06:43.144Z,37.37
2018-03-04T14:09:09.482Z,41.93
2018-03-04T14:11:35.819Z,38.10
2018-03-04T14:14:03.026Z,38.30
2018-03-04T14:16:31.000Z,38.17
2018-03-04T14:19:00.777Z,39.57
2018-03-04T14:21:28.546Z,37.13
2018-03-04T14:23:55.699Z,36.80
2018-03-04T14:26:23.096Z,38.57
2018-03-04T14:28:49.579Z,35.13
2018-03-04T14:31:16.275Z,38.43
2018-03-04T14:33:42.586Z,35.23
2018-03-04T14:36:09.737Z,35.00
2018-03-04T14:38:36.085Z,38.57
2018-03-04T14:41:02.482Z,40.40
2018-03-04T14:43:29.331Z,34.10
2018-03-04T14:45:55.642Z,38.17
2018-03-04T14:48:21.931Z,36.10
2018-03-04T14:50:48.197Z,36.77
2018-03-04T14:53:14.603Z,40.40
2018-03-04T14:55:40.875Z,37.17
2018-03-04T14:58:07.140Z,39.63
2018-03-04T15:00:33.450Z,58.53
2018-03-04T15:03:00.181Z,35.47
2018-03-04T15:05:26.721Z,42.63
2018-03-04T15:07:53.824Z,38.00
2018-03-04T15:10:20.155Z,39.60
2018-03-04T15:12:47.214Z,42.83
2018-03-04T15:15:13.500Z,44.03
2018-03-04T15:17:39.864Z,36.90
2018-03-04T15:20:07.113Z,37.27
2018-03-04T15:22:34.680Z,36.60
2018-03-04T15:25:01.127Z,56.60
2018-03-04T15:27:27.415Z,51.67
2018-03-04T15:29:53.805Z,41.07
2018-03-04T15:32:20.085Z,41.13
2018-03-04T15:34:46.437Z,37.57
2018-03-04T15:37:13.613Z,41.27
2018-03-04T15:39:39.925Z,39.60
2018-03-04T15:42:06.563Z,38.53
2018-03-04T15:44:33.033Z,37.57
2018-03-04T15:47:00.122Z,43.93
2018-03-04T15:49:26.788Z,41.47
2018-03-04T15:51:53.509Z,38.57
2018-03-04T15:54:19.827Z,38.90
2018-03-04T15:56:46.247Z,38.73
2018-03-04T15:59:12.501Z,34.20
2018-03-04T16:01:38.848Z,38.40
2018-03-04T16:04:05.166Z,40.80
2018-03-04T16:06:31.587Z,41.10
2018-03-04T16:08:58.035Z,40.30
2018-03-04T16:11:25.152Z,39.47
2018-03-04T16:13:51.512Z,40.90
2018-03-04T16:16:18.583Z,40.03
2018-03-04T16:18:45.807Z,45.57
2018-03-04T16:21:12.400Z,47.03
2018-03-04T16:23:41.724Z,43.53
2018-03-04T16:26:08.406Z,45.40
2018-03-04T16:28:34.844Z,38.87
2018-03-04T16:31:01.426Z,46.87
2018-03-04T16:33:28.371Z,42.77
2018-03-04T16:35:55.571Z,39.03
2018-03-04T16:38:21.941Z,44.43
2018-03-04T16:40:50.256Z,44.23
2018-03-04T16:43:16.568Z,47.57
2018-03-04T16:45:43.323Z,39.63
2018-03-04T16:48:11.049Z,40.27
2018-03-04T16:50:37.504Z,41.70
2018-03-04T16:53:04.495Z,43.63
2018-03-04T16:55:31.408Z,41.50
2018-03-04T16:57:59.193Z,46.53
2018-03-04T17:00:25.690Z,44.30
2018-03-04T17:02:54.642Z,43.33
2018-03-04T17:05:21.073Z,49.47
2018-03-04T17:07:48.374Z,41.40
2018-03-04T17:10:15.472Z,43.83
2018-03-04T17:12:43.257Z,44.10
2018-03-04T17:15:09.572Z,47.73
2018-03-04T17:17:36.622Z,49.30
2018-03-04T17:20:03.698Z,43.20
2018-03-04T17:22:32.120Z,48.00
2018-03-04T17:24:58.916Z,49.70
2018-03-04T17:27:25.248Z,53.80
2018-03-04T17:29:51.607Z,47.47
2018-03-04T17:32:18.678Z,53.80
2018-03-04T17:34:45.095Z,51.00
2018-03-04T17:37:11.753Z,52.00
2018-03-04T17:39:38.115Z,48.13
2018-03-04T17:42:04.874Z,44.40
2018-03-04T17:44:32.538Z,48.33
2018-03-04T17:47:00.279Z,46.87
2018-03-04T17:49:26.697Z,44.40
2018-03-04T17:51:53.089Z,47.20
2018-03-04T17:54:19.773Z,51.47
2018-03-04T17:56:46.169Z,52.77
2018-03-04T17:59:12.485Z,48.67
2018-03-04T18:01:38.792Z,47.80
2018-03-04T18:04:05.866Z,45.07
2018-03-04T18:06:34.391Z,50.17
2018-03-04T18:09:01.278Z,48.73
2018-03-04T18:11:27.706Z,53.30
2018-03-04T18:13:54.143Z,51.77
2018-03-04T18:16:20.503Z,48.30
2018-03-04T18:18:47.140Z,53.50
2018-03-04T18:21:13.453Z,49.77
2018-03-04T18:23:39.775Z,52.30
2018-03-04T18:26:07.144Z,46.77
2018-03-04T18:28:33.603Z,52.53
2018-03-04T18:31:00.491Z,46.80
2018-03-04T18:33:26.951Z,53.70
2018-03-04T18:35:53.275Z,50.80
2018-03-04T18:38:19.566Z,47.57
2018-03-04T18:40:46.624Z,54.10
2018-03-04T18:43:13.785Z,52.03
2018-03-04T18:45:40.957Z,45.30
2018-03-04T18:48:08.393Z,47.77
2018-03-04T18:50:34.896Z,47.20
2018-03-04T18:53:01.786Z,46.57
2018-03-04T18:55:28.302Z,51.17
2018-03-04T18:57:54.772Z,53.30
2018-03-04T19:00:21.047Z,56.77
2018-03-04T19:02:47.396Z,52.40
2018-03-04T19:05:13.716Z,55.57
2018-03-04T19:07:41.010Z,50.37
2018-03-04T19:10:07.338Z,47.57
2018-03-04T19:12:33.969Z,44.93
2018-03-04T19:15:00.770Z,46.97
2018-03-04T19:17:28.614Z,50.90
2018-03-04T19:19:55.717Z,52.57
2018-03-04T19:22:22.794Z,46.63
2018-03-04T19:24:49.196Z,48.40
2018-03-04T19:27:15.664Z,47.97
2018-03-04T19:29:42.308Z,46.03
2018-03-04T19:32:09.433Z,49.83
2018-03-04T19:34:35.852Z,45.33
2018-03-04T19:37:02.214Z,49.23
2018-03-04T19:39:29.262Z,44.73
2018-03-04T19:41:55.652Z,47.20
2018-03-04T19:44:22.773Z,47.10
2018-03-04T19:46:49.137Z,53.07
2018-03-04T19:49:15.491Z,48.10
2018-03-04T19:51:42.546Z,46.30
2018-03-04T19:54:09.708Z,49.03
2018-03-04T19:56:36.264Z,48.03
2018-03-04T19:59:03.346Z,48.53
2018-03-04T20:01:31.295Z,47.93
2018-03-04T20:03:58.166Z,54.23
2018-03-04T20:06:25.468Z,50.47
2018-03-04T20:08:51.802Z,48.97
2018-03-04T20:11:18.084Z,53.97
2018-03-04T20:13:44.364Z,52.47
2018-03-04T20:16:10.755Z,48.83
2018-03-04T20:18:37.336Z,49.80
2018-03-04T20:21:03.718Z,54.17
2018-03-04T20:23:31.013Z,52.77
2018-03-04T20:25:57.630Z,47.50
2018-03-04T20:28:24.697Z,56.40
2018-03-04T20:30:50.996Z,49.60
2018-03-04T20:33:17.298Z,51.27
2018-03-04T20:35:43.580Z,50.90
2018-03-04T20:38:09.898Z,49.60
2018-03-04T20:40:36.262Z,53.40
2018-03-04T20:43:03.393Z,51.93
2018-03-04T20:45:30.422Z,51.00
2018-03-04T20:47:56.695Z,48.63
2018-03-04T20:50:23.011Z,47.13
2018-03-04T20:52:49.303Z,46.57
2018-03-04T20:55:15.604Z,45.50
2018-03-04T20:57:41.861Z,49.13
2018-03-04T21:00:08.227Z,48.13
2018-03-04T21:02:34.895Z,52.33
2018-03-04T21:05:03.469Z,48.43
2018-03-04T21:07:30.660Z,45.80
2018-03-04T21:09:57.331Z,49.33
2018-03-04T21:12:24.640Z,51.13
2018-03-04T21:14:50.938Z,49.67
2018-03-04T21:17:17.318Z,48.43
2018-03-04T21:19:43.637Z,46.33
2018-03-04T21:22:09.878Z,46.00
2018-03-04T21:24:36.880Z,49.63
2018-03-04T21:27:07.080Z,50.03
2018-03-04T21:29:40.488Z,51.07
2018-03-04T21:32:07.595Z,52.33
2018-03-04T21:34:33.930Z,48.87
2018-03-04T21:37:01.128Z,47.07
2018-03-04T21:39:27.650Z,45.77
2018-03-04T21:41:53.973Z,47.80
2018-03-04T21:44:22.326Z,51.63
2018-03-04T21:46:48.614Z,50.03
2018-03-04T21:49:14.928Z,47.73
2018-03-04T21:51:41.998Z,49.50
2018-03-04T21:54:08.310Z,47.03
2018-03-04T21:56:34.641Z,45.20
2018-03-04T21:59:01.365Z,52.63
2018-03-04T22:01:27.814Z,47.27
2018-03-04T22:03:54.134Z,51.60
2018-03-04T22:06:20.436Z,52.80
2018-03-04T22:08:46.695Z,49.97
2018-03-04T22:11:13.710Z,50.03
2018-03-04T22:13:40.043Z,51.97
2018-03-04T22:16:06.374Z,47.77
2018-03-04T22:18:32.707Z,50.27
2018-03-04T22:21:00.100Z,50.77
2018-03-04T22:23:26.499Z,51.00
2018-03-04T22:25:52.856Z,51.40
2018-03-04T22:28:19.166Z,47.83
2018-03-04T22:30:46.229Z,53.73
2018-03-04T22:33:12.478Z,50.07
2018-03-04T22:35:39.611Z,49.87
2018-03-04T22:38:06.100Z,48.53
2018-03-04T22:40:32.658Z,51.13
2018-03-04T22:42:58.957Z,50.57
2018-03-04T22:45:25.273Z,52.37
2018-03-04T22:47:52.630Z,53.10
2018-03-04T22:50:18.944Z,51.23
2018-03-04T22:52:45.194Z,56.07
2018-03-04T22:55:11.502Z,50.20
2018-03-04T22:57:37.748Z,47.17
2018-03-04T23:00:04.062Z,47.30
2018-03-04T23:02:30.442Z,51.33
2018-03-04T23:04:57.556Z,47.70
2018-03-04T23:07:23.888Z,53.13
2018-03-04T23:09:50.164Z,49.37
2018-03-04T23:12:16.441Z,52.17
2018-03-04T23:14:43.506Z,51.63
2018-03-04T23:17:09.914Z,50.83
2018-03-04T23:19:36.200Z,48.53
2018-03-04T23:22:15.021Z,43.57
2018-03-04T23:24:41.413Z,46.80
2018-03-04T23:27:08.521Z,51.77
2018-03-04T23:29:35.876Z,48.37
2018-03-04T23:32:02.433Z,46.47
2018-03-04T23:34:29.458Z,47.20
2018-03-04T23:36:55.817Z,50.57
2018-03-04T23:39:22.160Z,46.07
2018-03-04T23:41:48.503Z,48.87
2018-03-04T23:44:14.837Z,49.73
2018-03-04T23:46:41.190Z,49.73
2018-03-04T23:49:07.512Z,45.27
2018-03-04T23:51:33.888Z,48.47
2018-03-04T23:54:00.179Z,48.20
2018-03-04T23:56:26.485Z,49.00
2018-03-04T23:58:53.512Z,46.13
